Time;durP1;ratioP1;P1;durP2;ratioP2;P2;SDS_P1;SDS_P2;PMS_P1;PMS_P2;Temp;Humidity;BMP_temperature;BMP_pressure;BME280_temperature;BME280_humidity;BME280_pressure;Samples;Min_cycle;Max_cycle;Signal;HPM_P1;HPM_P2
2022/03/30 00:00:21;;;;;;;27.43;26.13;;;20.50;53.40;;;;;;5093640;28;20533;-53
2022/03/30 00:02:47;;;;;;;29.77;28.47;;;20.40;53.40;;;;;;5093502;28;20469;-52
2022/03/30 00:05:14;;;;;;;28.20;27.10;;;20.40;53.40;;;;;;5093440;28;20442;-51
2022/03/30 00:07:41;;;;;;;29.40;28.20;;;20.40;53.40;;;;;;5093331;28;20438;-51
2022/03/30 00:10:08;;;;;;;28.27;27.07;;;20.40;53.40;;;;;;5092699;28;20992;-50
2022/03/30 00:12:35;;;;;;;30.00;28.70;;;20.40;53.40;;;;;;5093281;28;20560;-51
2022/03/30 00:15:04;;;;;;;28.50;27.20;;;20.40;53.40;;;;;;5093372;28;20442;-51
2022/03/30 00:17:31;;;;;;;28.67;27.47;;;20.40;53.40;;;;;;5093133;28;20442;-52
2022/03/30 00:19:59;;;;;;;28.40;27.00;;;20.40;53.40;;;;;;5093159;28;20786;-49
2022/03/30 00:22:26;;;;;;;27.50;26.30;;;20.40;53.40;;;;;;5093186;28;20466;-52
2022/03/30 00:24:53;;;;;;;30.47;29.07;;;20.40;53.40;;;;;;5093034;28;20442;-50
2022/03/30 00:27:20;;;;;;;29.90;28.60;;;20.30;53.40;;;;;;5092800;28;20960;-50
2022/03/30 00:29:47;;;;;;;28.93;27.63;;;20.30;53.40;;;;;;5093049;28;20482;-50
2022/03/30 00:32:15;;;;;;;26.90;25.80;;;20.30;53.50;;;;;;5092980;28;20467;-53
2022/03/30 00:34:42;;;;;;;28.80;27.60;;;20.30;53.50;;;;;;5092890;28;20439;-51
2022/03/30 00:37:09;;;;;;;29.97;28.67;;;20.30;53.50;;;;;;5092796;28;20821;-54
2022/03/30 00:39:36;;;;;;;28.77;27.60;;;20.30;53.50;;;;;;5092802;28;20439;-53
2022/03/30 00:42:13;;;;;;;28.17;26.93;;;20.30;53.50;;;;;;5092717;28;20442;-53
2022/03/30 00:44:40;;;;;;;28.00;26.80;;;20.30;53.50;;;;;;5092879;28;20450;-54
2022/03/30 00:47:15;;;;;;;28.90;27.60;;;20.30;53.60;;;;;;5092511;28;20469;-55
2022/03/30 00:49:42;;;;;;;27.47;26.37;;;20.20;53.50;;;;;;5092667;28;20535;-53
2022/03/30 00:52:09;;;;;;;28.40;27.20;;;20.20;53.50;;;;;;5092562;28;20545;-56
2022/03/30 00:54:37;;;;;;;27.90;26.70;;;20.20;53.60;;;;;;5092741;28;20534;-50
2022/03/30 00:57:06;;;;;;;26.90;25.70;;;20.20;53.60;;;;;;5092550;28;20439;-52
2022/03/30 00:59:33;;;;;;;28.63;27.53;;;20.20;53.70;;;;;;5092722;28;20442;-51
2022/03/30 01:02:01;;;;;;;27.17;26.00;;;20.20;53.60;;;;;;5092444;28;20456;-51
2022/03/30 01:04:31;;;;;;;27.30;26.10;;;20.20;53.70;;;;;;5092547;28;20447;-54
2022/03/30 01:06:58;;;;;;;26.70;25.60;;;20.20;53.60;;;;;;5092102;28;20443;-52
2022/03/30 01:09:25;;;;;;;27.43;26.23;;;20.20;53.60;;;;;;5092199;28;20489;-50
2022/03/30 01:11:53;;;;;;;28.03;26.73;;;20.20;53.60;;;;;;5092141;28;20442;-54
2022/03/30 01:14:21;;;;;;;26.60;25.50;;;20.20;54.20;;;;;;5092204;28;20500;-49
2022/03/30 01:16:47;;;;;;;27.47;26.27;;;20.20;53.60;;;;;;5092028;28;20483;-50
2022/03/30 01:19:15;;;;;;;29.03;27.73;;;20.20;53.60;;;;;;5092111;28;20944;-51
2022/03/30 01:21:44;;;;;;;27.30;26.20;;;20.20;53.60;;;;;;5091167;28;20450;-54
2022/03/30 01:24:12;;;;;;;28.00;26.80;;;20.20;53.50;;;;;;5091978;28;20528;-51
2022/03/30 01:26:40;;;;;;;28.20;26.90;;;20.20;53.50;;;;;;5091803;28;20864;-51
2022/03/30 01:34:34;;;;;;;29.13;27.83;;;20.20;53.50;;;;;;5091924;28;20430;-51
2022/03/30 01:37:02;;;;;;;27.40;26.30;;;20.20;53.60;;;;;;5091695;28;20443;-50
2022/03/30 01:39:29;;;;;;;28.30;27.10;;;20.20;53.60;;;;;;5091827;28;20456;-49
2022/03/30 01:41:56;;;;;;;29.10;27.80;;;20.20;53.80;;;;;;5091731;28;20446;-50
2022/03/30 01:44:24;;;;;;;29.30;27.87;;;20.20;53.50;;;;;;5091843;28;20484;-50
2022/03/30 01:46:51;;;;;;;28.67;27.47;;;20.20;53.50;;;;;;5091586;28;20538;-51
2022/03/30 01:49:21;;;;;;;27.43;26.23;;;20.20;53.40;;;;;;5091617;28;20430;-52
2022/03/30 01:51:48;;;;;;;27.20;25.97;;;20.20;53.40;;;;;;5091907;28;20840;-50
2022/03/30 01:54:16;;;;;;;27.70;26.50;;;20.20;53.20;;;;;;5091527;28;20450;-52
2022/03/30 01:56:43;;;;;;;27.10;25.90;;;20.20;53.40;;;;;;5091351;28;20496;-49
2022/03/30 01:59:10;;;;;;;27.50;26.30;;;20.20;53.40;;;;;;5091564;28;20443;-54
2022/03/30 02:01:37;;;;;;;28.80;27.60;;;20.20;53.40;;;;;;5091728;28;20809;-49
2022/03/30 02:04:06;;;;;;;29.53;28.17;;;20.20;53.40;;;;;;5091512;28;20467;-54
2022/03/30 02:06:33;;;;;;;26.83;25.53;;;20.20;53.30;;;;;;5091252;28;20450;-51
2022/03/30 02:09:00;;;;;;;27.30;26.10;;;20.20;53.30;;;;;;5091558;28;20439;-48
2022/03/30 02:11:28;;;;;;;27.97;26.70;;;20.20;53.20;;;;;;5091445;28;20482;-49
2022/03/30 02:13:56;;;;;;;28.27;27.07;;;20.20;53.30;;;;;;5091489;28;20466;-49
2022/03/30 02:16:23;;;;;;;27.27;26.07;;;20.20;53.30;;;;;;5091171;28;20443;-49
2022/03/30 02:18:50;;;;;;;27.50;26.30;;;20.20;53.30;;;;;;5091362;28;20443;-54
2022/03/30 02:21:16;;;;;;;29.27;27.87;;;20.10;53.20;;;;;;5091358;28;20434;-51
2022/03/30 02:23:45;;;;;;;28.23;26.97;;;20.10;53.10;;;;;;5091315;28;20458;-51
2022/03/30 02:26:12;;;;;;;28.60;27.40;;;20.10;53.20;;;;;;5091135;28;20537;-49
2022/03/30 02:28:41;;;;;;;30.00;28.50;;;20.10;53.20;;;;;;5091322;28;20446;-51
2022/03/30 02:31:07;;;;;;;29.20;27.90;;;20.10;53.20;;;;;;5091282;28;20474;-53
2022/03/30 02:33:34;;;;;;;29.03;27.73;;;20.10;53.20;;;;;;5094379;28;20470;-51
2022/03/30 02:36:01;;;;;;;28.33;27.13;;;20.10;53.20;;;;;;5095004;28;20446;-51
2022/03/30 02:38:28;;;;;;;26.97;25.80;;;20.00;53.20;;;;;;5095163;28;20448;-51
2022/03/30 02:40:55;;;;;;;27.30;26.10;;;20.00;53.20;;;;;;5095220;28;20810;-48
2022/03/30 02:43:22;;;;;;;28.67;27.37;;;20.00;53.20;;;;;;5095126;28;20462;-53
2022/03/30 02:45:51;;;;;;;26.80;25.50;;;20.00;53.20;;;;;;5094946;28;20450;-53
2022/03/30 02:48:22;;;;;;;26.83;25.63;;;20.00;53.30;;;;;;5094988;28;20442;-51
2022/03/30 02:50:51;;;;;;;26.57;25.47;;;20.00;53.20;;;;;;5095015;28;20570;-51
2022/03/30 02:53:20;;;;;;;27.90;26.40;;;20.00;53.30;;;;;;5094834;28;20830;-54
2022/03/30 02:55:47;;;;;;;26.37;25.27;;;20.00;53.30;;;;;;5094744;28;20446;-51
2022/03/30 02:58:14;;;;;;;27.60;26.23;;;20.00;53.80;;;;;;5094710;28;20446;-53
2022/03/30 03:00:42;;;;;;;26.57;25.47;;;20.00;53.30;;;;;;5094824;28;20454;-51
2022/03/30 03:03:11;;;;;;;27.30;26.20;;;20.00;53.40;;;;;;5094757;28;20465;-54
2022/03/30 03:05:39;;;;;;;27.03;25.93;;;19.90;53.30;;;;;;5094448;28;20805;-51
2022/03/30 03:08:08;;;;;;;29.30;27.93;;;20.00;53.40;;;;;;5094605;28;20446;-51
2022/03/30 03:10:37;;;;;;;26.10;25.10;;;20.00;53.40;;;;;;5094631;28;20478;-53
2022/03/30 03:13:04;;;;;;;27.57;26.37;;;19.90;53.30;;;;;;5094566;28;20969;-50
2022/03/30 03:15:32;;;;;;;28.80;27.50;;;19.90;53.30;;;;;;5094243;28;20783;-50
2022/03/30 03:17:59;;;;;;;28.00;26.70;;;19.90;53.40;;;;;;5094372;28;20450;-52
2022/03/30 03:20:27;;;;;;;27.33;26.13;;;19.90;53.40;;;;;;5094396;28;20811;-54
2022/03/30 03:22:54;;;;;;;26.87;25.70;;;19.90;53.40;;;;;;5094266;28;20458;-53
2022/03/30 03:25:21;;;;;;;26.70;25.50;;;19.90;53.50;;;;;;5094233;28;20514;-50
2022/03/30 03:27:48;;;;;;;26.23;25.03;;;19.90;53.50;;;;;;5094197;28;20458;-54
2022/03/30 03:30:15;;;;;;;27.47;26.37;;;19.90;53.50;;;;;;5094237;28;20486;-49
2022/03/30 03:32:42;;;;;;;28.10;26.80;;;19.90;53.50;;;;;;5094077;28;20463;-50
2022/03/30 03:35:09;;;;;;;27.50;26.30;;;19.90;53.50;;;;;;5094120;28;20816;-52
2022/03/30 03:37:38;;;;;;;28.27;26.97;;;19.90;54.00;;;;;;5093940;28;20438;-52
2022/03/30 03:40:07;;;;;;;28.67;27.47;;;19.90;53.50;;;;;;5094127;28;20446;-54
2022/03/30 03:42:34;;;;;;;27.50;26.20;;;19.90;53.40;;;;;;5093874;28;20462;-51
2022/03/30 03:45:01;;;;;;;28.20;27.00;;;19.90;53.50;;;;;;5092927;28;20457;-51
2022/03/30 03:47:28;;;;;;;28.17;26.90;;;19.80;53.50;;;;;;5093741;28;20819;-52
2022/03/30 03:49:55;;;;;;;27.00;25.90;;;19.80;53.40;;;;;;5093949;28;20507;-51
2022/03/30 03:52:21;;;;;;;27.43;26.23;;;19.80;53.40;;;;;;5093611;28;20482;-53
2022/03/30 03:54:50;;;;;;;27.97;26.67;;;19.80;53.40;;;;;;5093924;28;20445;-50
2022/03/30 03:57:16;;;;;;;26.30;25.20;;;19.80;53.40;;;;;;5093423;28;20453;-54
2022/03/30 03:59:43;;;;;;;27.10;25.90;;;19.80;53.40;;;;;;5093707;28;20450;-53
2022/03/30 04:02:10;;;;;;;29.33;27.97;;;19.80;53.40;;;;;;5093617;28;20970;-53
2022/03/30 04:04:37;;;;;;;29.17;27.57;;;19.80;53.40;;;;;;5093527;28;20454;-53
2022/03/30 04:07:05;;;;;;;30.27;28.87;;;19.80;53.50;;;;;;5093483;28;20503;-54
2022/03/30 04:09:32;;;;;;;27.77;26.53;;;19.80;53.50;;;;;;5093479;28;20825;-54
2022/03/30 04:12:00;;;;;;;28.50;27.30;;;19.80;53.60;;;;;;5093207;28;20483;-52
2022/03/30 04:14:27;;;;;;;28.43;27.10;;;19.80;53.70;;;;;;5093380;28;20454;-55
2022/03/30 04:16:53;;;;;;;30.20;28.80;;;19.80;53.70;;;;;;5093060;28;20445;-52
2022/03/30 04:19:20;;;;;;;31.87;30.47;;;19.80;53.70;;;;;;5093385;28;20470;-53
2022/03/30 04:21:47;;;;;;;28.43;27.03;;;19.80;53.80;;;;;;5093316;28;20941;-52
2022/03/30 04:24:14;;;;;;;28.97;27.47;;;19.80;53.80;;;;;;5093226;28;20473;-55
2022/03/30 04:26:41;;;;;;;27.53;26.30;;;19.80;53.80;;;;;;5092874;28;20451;-54
2022/03/30 04:29:09;;;;;;;28.60;27.20;;;19.80;53.80;;;;;;5093106;28;20482;-51
2022/03/30 04:31:35;;;;;;;28.33;27.10;;;19.80;53.70;;;;;;5092869;28;20485;-56
2022/03/30 04:34:02;;;;;;;27.57;26.37;;;19.80;53.70;;;;;;5092983;28;20474;-50
2022/03/30 04:36:29;;;;;;;29.07;27.73;;;19.80;53.60;;;;;;5092974;28;20797;-53
2022/03/30 04:38:56;;;;;;;28.90;27.60;;;19.80;53.60;;;;;;5092840;28;20447;-55
2022/03/30 04:41:23;;;;;;;28.50;27.20;;;19.90;53.60;;;;;;5092925;28;20446;-54
2022/03/30 04:43:50;;;;;;;28.00;26.80;;;19.90;53.60;;;;;;5092772;28;20462;-53
2022/03/30 04:46:18;;;;;;;28.00;26.80;;;19.80;53.50;;;;;;5092562;28;20443;-51
2022/03/30 04:48:45;;;;;;;29.03;27.73;;;19.80;53.40;;;;;;5092694;28;20446;-51
2022/03/30 04:51:12;;;;;;;28.50;27.20;;;19.80;53.40;;;;;;5092569;28;20478;-51
2022/03/30 04:53:38;;;;;;;27.43;26.17;;;19.80;53.50;;;;;;5092449;28;20849;-49
2022/03/30 04:56:07;;;;;;;29.43;27.90;;;19.80;53.70;;;;;;5092147;28;20448;-52
2022/03/30 04:58:34;;;;;;;28.63;26.93;;;19.80;54.00;;;;;;5092421;28;20450;-49
2022/03/30 05:01:01;;;;;;;30.80;29.30;;;19.80;54.50;;;;;;5075218;28;20447;-52
2022/03/30 05:03:29;;;;;;;32.57;30.57;;;19.80;56.10;;;;;;5072084;28;20482;-51
2022/03/30 05:05:55;;;;;;;33.33;31.23;;;19.80;59.60;;;;;;5071923;28;20807;-50
2022/03/30 05:08:22;;;;;;;33.97;32.00;;;19.80;62.10;;;;;;5071605;28;20454;-50
2022/03/30 05:10:50;;;;;;;32.07;30.17;;;19.80;62.60;;;;;;5071875;28;20486;-54
2022/03/30 05:13:17;;;;;;;31.00;28.80;;;19.80;61.90;;;;;;5071805;28;21065;-50
2022/03/30 05:15:43;;;;;;;30.53;28.57;;;19.80;61.50;;;;;;5071694;28;20447;-52
2022/03/30 05:18:11;;;;;;;32.17;29.90;;;19.80;61.00;;;;;;5071681;28;20447;-54
2022/03/30 05:20:43;;;;;;;33.10;31.10;;;19.80;60.40;;;;;;5071701;28;20522;-53
2022/03/30 05:23:10;;;;;;;30.03;28.13;;;19.80;60.00;;;;;;5071702;28;20529;-51
2022/03/30 05:25:37;;;;;;;30.70;28.90;;;19.70;59.70;;;;;;5071587;28;20803;-53
2022/03/30 05:28:04;;;;;;;31.77;29.50;;;19.70;59.50;;;;;;5071630;28;20451;-52
2022/03/30 05:30:31;;;;;;;29.70;27.83;;;19.70;59.80;;;;;;5071617;28;20483;-51
2022/03/30 05:32:57;;;;;;;32.60;30.40;;;19.70;59.20;;;;;;5071739;28;20463;-52
2022/03/30 05:35:24;;;;;;;31.33;29.47;;;19.70;59.00;;;;;;5071410;28;20450;-52
2022/03/30 05:37:52;;;;;;;29.80;28.20;;;19.70;58.90;;;;;;5071607;28;20938;-50
2022/03/30 05:40:19;;;;;;;30.13;28.40;;;19.60;58.70;;;;;;5071626;28;20813;-50
2022/03/30 05:42:47;;;;;;;30.40;28.90;;;19.60;58.70;;;;;;5071473;28;20481;-51
2022/03/30 05:45:13;;;;;;;30.07;28.47;;;19.60;58.60;;;;;;5071470;28;20814;-54
2022/03/30 05:47:41;;;;;;;29.80;28.20;;;19.60;58.50;;;;;;5071313;28;20451;-53
2022/03/30 05:50:09;;;;;;;28.47;26.57;;;19.60;58.50;;;;;;5071545;28;20440;-50
2022/03/30 05:52:36;;;;;;;32.47;30.30;;;19.50;58.40;;;;;;5071773;28;20570;-54
2022/03/30 05:55:05;;;;;;;29.13;27.37;;;19.50;58.30;;;;;;5071372;28;20942;-52
2022/03/30 05:57:31;;;;;;;30.17;28.40;;;19.50;58.30;;;;;;5071221;28;20450;-52
2022/03/30 05:59:58;;;;;;;29.23;27.50;;;19.50;58.20;;;;;;5071527;28;20541;-54
2022/03/30 06:02:25;;;;;;;28.20;26.70;;;19.50;58.20;;;;;;5071322;28;20512;-54
2022/03/30 06:04:53;;;;;;;29.73;28.10;;;19.50;58.10;;;;;;5071375;28;20455;-52
2022/03/30 06:07:21;;;;;;;29.93;28.43;;;19.40;58.00;;;;;;5072448;28;20817;-52
2022/03/30 06:09:48;;;;;;;29.90;28.30;;;19.50;58.00;;;;;;5075500;28;20443;-56
2022/03/30 06:12:16;;;;;;;29.67;27.97;;;19.50;58.00;;;;;;5075270;28;20483;-55
2022/03/30 06:14:43;;;;;;;28.10;26.40;;;19.50;57.90;;;;;;5075391;28;20523;-54
2022/03/30 06:17:11;;;;;;;30.60;28.93;;;19.50;58.40;;;;;;5075152;28;20443;-52
2022/03/30 06:19:38;;;;;;;30.40;28.80;;;19.50;57.70;;;;;;5075324;28;20489;-53
2022/03/30 06:22:08;;;;;;;30.27;28.50;;;19.60;57.70;;;;;;5075198;28;20450;-53
2022/03/30 06:24:37;;;;;;;30.60;28.90;;;19.60;57.50;;;;;;5075274;28;20451;-52
2022/03/30 06:27:04;;;;;;;30.60;28.90;;;19.80;57.30;;;;;;5074728;28;20444;-51
2022/03/30 06:29:33;;;;;;;30.27;28.27;;;19.90;56.90;;;;;;5075156;28;20888;-51
2022/03/30 06:32:00;;;;;;;29.00;27.37;;;20.00;56.50;;;;;;5074863;28;20533;-53
2022/03/30 06:34:26;;;;;;;30.60;28.80;;;20.10;56.10;;;;;;5075178;28;20814;-52
2022/03/30 06:36:54;;;;;;;31.17;29.53;;;20.20;55.80;;;;;;5074716;28;20828;-55
2022/03/30 06:39:20;;;;;;;29.27;27.77;;;20.20;55.50;;;;;;5074907;28;20853;-55
2022/03/30 06:41:48;;;;;;;28.60;27.10;;;20.30;55.30;;;;;;5074902;28;20945;-55
2022/03/30 06:44:15;;;;;;;30.43;28.80;;;20.30;55.10;;;;;;5074901;28;20451;-54
2022/03/30 06:46:43;;;;;;;32.40;30.80;;;20.30;54.90;;;;;;5074551;28;20575;-56
2022/03/30 06:49:10;;;;;;;30.07;28.47;;;20.40;54.70;;;;;;5074730;28;20447;-51
2022/03/30 06:51:38;;;;;;;29.00;27.70;;;20.40;54.60;;;;;;5074532;28;20537;-50
2022/03/30 06:54:05;;;;;;;28.77;27.23;;;20.40;54.50;;;;;;5074473;28;20501;-50
2022/03/30 06:56:32;;;;;;;28.00;26.70;;;20.40;54.30;;;;;;5074345;28;20957;-50
2022/03/30 06:58:59;;;;;;;28.00;26.80;;;20.40;54.20;;;;;;5074531;28;20447;-50
2022/03/30 07:01:26;;;;;;;28.30;27.00;;;20.40;54.10;;;;;;5074515;28;20930;-51
2022/03/30 07:03:54;;;;;;;27.70;26.23;;;20.40;54.10;;;;;;5074316;28;20466;-51
2022/03/30 07:06:21;;;;;;;27.70;26.07;;;20.40;54.00;;;;;;5074063;28;20538;-50
2022/03/30 07:11:32;;;;;;;28.67;27.17;;;20.30;54.10;;;;;;5074442;28;20482;-51
2022/03/30 07:13:59;;;;;;;26.90;25.50;;;20.20;54.10;;;;;;5074089;28;20821;-52
2022/03/30 07:16:26;;;;;;;28.87;27.47;;;20.20;54.20;;;;;;5074014;28;20946;-50
2022/03/30 07:18:55;;;;;;;29.53;27.93;;;20.20;54.30;;;;;;5074062;28;20443;-54
2022/03/30 07:21:22;;;;;;;29.40;28.00;;;20.20;54.30;;;;;;5074172;28;20871;-51
2022/03/30 07:23:49;;;;;;;27.43;26.13;;;20.10;54.30;;;;;;5074093;28;20855;-51
2022/03/30 07:26:15;;;;;;;29.90;28.50;;;20.10;54.30;;;;;;5073828;28;20450;-51
2022/03/30 07:28:42;;;;;;;30.30;28.87;;;20.10;54.30;;;;;;5073892;28;20452;-55
2022/03/30 07:31:09;;;;;;;32.20;30.67;;;20.10;54.20;;;;;;5074002;28;20487;-54
2022/03/30 07:33:36;;;;;;;30.07;28.70;;;20.10;54.20;;;;;;5073847;28;20529;-50
2022/03/30 07:36:04;;;;;;;30.07;28.50;;;20.10;54.20;;;;;;5073713;28;20435;-50
2022/03/30 07:38:31;;;;;;;29.83;28.33;;;20.00;54.10;;;;;;5073949;28;20444;-49
2022/03/30 07:41:00;;;;;;;27.80;26.60;;;20.10;54.20;;;;;;5073715;28;20451;-50
2022/03/30 07:43:28;;;;;;;29.43;27.93;;;20.10;54.10;;;;;;5073651;28;20994;-50
2022/03/30 07:45:55;;;;;;;29.30;27.87;;;20.00;54.00;;;;;;5073565;28;20451;-50
2022/03/30 07:48:23;;;;;;;29.47;28.07;;;20.00;54.00;;;;;;5073655;28;20462;-51
2022/03/30 07:50:49;;;;;;;28.70;27.40;;;20.10;54.00;;;;;;5073800;28;20440;-50
2022/03/30 07:53:19;;;;;;;29.10;27.80;;;20.00;53.90;;;;;;5073321;28;20491;-53
2022/03/30 07:55:47;;;;;;;26.50;25.30;;;20.00;53.90;;;;;;5073319;28;20443;-51
2022/03/30 07:58:13;;;;;;;30.07;28.70;;;20.10;53.90;;;;;;5073382;28;20542;-51
2022/03/30 08:00:40;;;;;;;29.53;28.23;;;20.10;53.80;;;;;;5073367;28;20530;-51
2022/03/30 08:03:08;;;;;;;30.17;28.87;;;20.10;53.70;;;;;;5073208;28;20471;-50
2022/03/30 08:05:35;;;;;;;28.27;26.87;;;20.10;53.70;;;;;;5073188;28;20459;-53
2022/03/30 08:08:02;;;;;;;28.97;27.77;;;20.10;53.70;;;;;;5073202;28;20440;-54
2022/03/30 08:10:30;;;;;;;28.53;27.23;;;20.10;53.60;;;;;;5073269;28;20443;-52
2022/03/30 08:12:57;;;;;;;29.23;27.73;;;20.10;53.60;;;;;;5073023;28;20853;-52
2022/03/30 08:15:24;;;;;;;29.10;27.90;;;20.00;53.50;;;;;;5072982;28;20822;-50
2022/03/30 08:17:51;;;;;;;28.47;27.17;;;20.00;53.50;;;;;;5073105;28;20448;-50
2022/03/30 08:23:04;;;;;;;28.70;27.30;;;20.10;53.40;;;;;;5073060;28;20566;-54
2022/03/30 08:25:33;;;;;;;30.13;28.83;;;20.20;53.70;;;;;;5072746;28;20447;-52
2022/03/30 08:28:00;;;;;;;29.13;27.87;;;20.20;53.20;;;;;;5072758;28;20448;-50
2022/03/30 08:30:26;;;;;;;27.60;26.40;;;20.30;53.10;;;;;;5072314;28;20439;-50
2022/03/30 08:32:54;;;;;;;29.67;28.27;;;20.40;53.00;;;;;;5072700;28;20850;-50
2022/03/30 08:35:22;;;;;;;28.53;27.13;;;20.60;52.80;;;;;;5072592;28;20452;-50
2022/03/30 08:37:49;;;;;;;28.83;27.53;;;20.60;52.40;;;;;;5072626;28;20457;-51
2022/03/30 08:40:16;;;;;;;26.07;24.97;;;20.70;52.20;;;;;;5072496;28;20826;-50
2022/03/30 08:42:45;;;;;;;28.93;27.73;;;20.80;52.00;;;;;;5072565;28;20462;-50
2022/03/30 08:45:12;;;;;;;27.63;26.40;;;20.80;51.90;;;;;;5072495;28;20462;-53
2022/03/30 08:47:39;;;;;;;29.10;27.70;;;20.90;51.70;;;;;;5072300;28;20444;-51
2022/03/30 08:50:07;;;;;;;28.60;27.30;;;20.90;51.60;;;;;;5072478;28;20451;-51
2022/03/30 08:52:34;;;;;;;28.03;26.90;;;20.90;51.40;;;;;;5072142;28;20490;-50
2022/03/30 08:55:01;;;;;;;25.57;24.53;;;21.00;51.30;;;;;;5072391;28;20447;-50
2022/03/30 08:57:29;;;;;;;27.33;26.03;;;21.00;51.10;;;;;;5072043;28;20930;-50
2022/03/30 09:00:07;;;;;;;27.63;26.37;;;21.00;51.00;;;;;;5072346;28;20452;-50
2022/03/30 09:02:36;;;;;;;26.17;25.07;;;21.10;50.90;;;;;;5072184;28;20464;-50
2022/03/30 09:05:15;;;;;;;27.03;25.83;;;21.10;50.80;;;;;;5072055;28;20448;-49
2022/03/30 09:07:42;;;;;;;28.30;27.00;;;21.10;50.70;;;;;;5071922;28;20449;-51
2022/03/30 09:10:18;;;;;;;29.30;27.90;;;21.10;50.50;;;;;;5072041;28;20448;-52
2022/03/30 09:12:46;;;;;;;30.10;28.70;;;21.20;50.50;;;;;;5071869;28;20483;-50
2022/03/30 09:15:15;;;;;;;28.93;27.53;;;21.20;50.40;;;;;;5072022;28;20440;-49
2022/03/30 09:17:43;;;;;;;29.00;27.60;;;21.20;50.30;;;;;;5071792;28;20447;-50
2022/03/30 09:20:17;;;;;;;29.83;28.43;;;21.20;50.20;;;;;;5071942;28;20804;-50
2022/03/30 09:22:45;;;;;;;27.90;26.73;;;21.20;50.00;;;;;;5071877;28;20463;-50
2022/03/30 09:25:13;;;;;;;27.80;26.57;;;21.30;50.00;;;;;;5071755;28;20451;-49
2022/03/30 09:27:42;;;;;;;26.43;25.23;;;21.30;50.00;;;;;;5071836;28;20859;-51
2022/03/30 09:30:11;;;;;;;27.40;26.30;;;21.30;49.80;;;;;;5071806;28;20972;-49
2022/03/30 09:32:40;;;;;;;27.67;26.30;;;21.30;49.70;;;;;;5071570;28;20510;-53
2022/03/30 09:35:19;;;;;;;27.03;25.87;;;21.40;49.70;;;;;;5071769;28;20451;-50
2022/03/30 09:37:58;;;;;;;27.90;26.57;;;21.40;49.60;;;;;;5071569;28;20447;-50
2022/03/30 09:40:34;;;;;;;29.53;28.13;;;21.40;49.50;;;;;;5071555;28;20455;-51
2022/03/30 09:43:11;;;;;;;28.10;26.90;;;21.40;49.40;;;;;;5070731;28;20462;-49
2022/03/30 09:45:38;;;;;;;27.33;25.97;;;21.50;49.30;;;;;;5071537;28;20447;-50
2022/03/30 09:48:13;;;;;;;28.90;27.50;;;21.50;49.30;;;;;;5071542;28;20454;-50
2022/03/30 09:50:43;;;;;;;28.50;27.30;;;21.50;49.10;;;;;;5071644;28;20447;-52
2022/03/30 09:53:11;;;;;;;26.60;25.50;;;21.50;49.10;;;;;;5071362;28;20913;-50
2022/03/30 09:55:50;;;;;;;27.20;26.07;;;21.60;49.00;;;;;;5071202;28;20455;-49
2022/03/30 09:58:20;;;;;;;27.80;26.60;;;21.60;48.90;;;;;;5071428;28;20495;-53
2022/03/30 10:01:03;;;;;;;26.90;25.50;;;21.60;48.70;;;;;;5071434;28;20448;-49
2022/03/30 10:03:42;;;;;;;26.17;25.07;;;21.60;48.60;;;;;;5071455;28;20813;-50
2022/03/30 10:06:10;;;;;;;26.67;25.57;;;21.60;48.60;;;;;;5071232;28;20477;-49
2022/03/30 10:08:39;;;;;;;27.77;26.47;;;21.60;48.60;;;;;;5071314;28;20613;-49
2022/03/30 10:11:06;;;;;;;27.30;26.00;;;21.60;48.50;;;;;;5071312;28;20447;-51
2022/03/30 10:13:33;;;;;;;26.77;25.57;;;21.60;48.50;;;;;;5071309;28;20578;-51
2022/03/30 10:16:00;;;;;;;29.30;27.90;;;21.70;48.50;;;;;;5071031;28;20450;-49
2022/03/30 10:18:26;;;;;;;27.83;26.63;;;21.70;48.50;;;;;;5071114;28;20452;-50
2022/03/30 10:21:11;;;;;;;26.20;25.10;;;21.60;48.30;;;;;;5071229;28;20518;-53
2022/03/30 10:23:49;;;;;;;25.80;24.70;;;21.70;48.30;;;;;;5071129;28;20491;-53
2022/03/30 10:26:26;;;;;;;26.27;25.17;;;21.70;48.20;;;;;;5070911;28;20501;-51
2022/03/30 10:28:59;;;;;;;28.20;26.90;;;21.70;48.20;;;;;;5071159;28;20451;-50
2022/03/30 10:31:28;;;;;;;26.90;25.80;;;21.70;48.20;;;;;;5071200;28;20452;-52
2022/03/30 10:33:55;;;;;;;27.33;26.13;;;21.70;48.10;;;;;;5070923;28;20491;-52
2022/03/30 10:36:26;;;;;;;27.10;26.00;;;21.80;48.10;;;;;;5070848;28;20443;-55
2022/03/30 10:39:12;;;;;;;27.00;25.90;;;21.80;48.00;;;;;;5071076;28;20455;-52
2022/03/30 10:41:49;;;;;;;28.40;27.20;;;21.80;48.40;;;;;;5071179;28;20447;-50
2022/03/30 10:44:41;;;;;;;28.50;27.30;;;21.80;47.90;;;;;;5070962;28;20501;-52
2022/03/30 10:47:10;;;;;;;28.17;26.97;;;21.90;47.90;;;;;;5070820;28;20961;-49
2022/03/30 10:49:42;;;;;;;28.67;27.40;;;21.90;47.80;;;;;;5070938;28;20447;-51
2022/03/30 10:52:31;;;;;;;27.50;26.40;;;22.00;47.70;;;;;;5070656;28;20494;-52
2022/03/30 10:55:33;;;;;;;29.17;27.90;;;22.00;47.60;;;;;;5074622;28;20443;-50
2022/03/30 10:58:02;;;;;;;27.00;25.90;;;22.10;47.50;;;;;;5072034;28;20462;-55
2022/03/30 11:00:34;;;;;;;27.77;26.60;;;22.10;47.40;;;;;;5074642;28;20447;-50
2022/03/30 11:03:12;;;;;;;28.23;27.03;;;22.20;47.30;;;;;;5074473;28;20491;-52
2022/03/30 11:05:39;;;;;;;28.67;27.47;;;22.20;47.10;;;;;;5074319;28;20530;-54
2022/03/30 11:08:48;;;;;;;27.80;26.70;;;22.30;47.00;;;;;;5074571;28;20443;-50
2022/03/30 11:11:23;;;;;;;28.13;26.93;;;22.40;47.00;;;;;;5074180;28;20863;-50
2022/03/30 11:13:50;;;;;;;28.53;27.23;;;22.40;46.70;;;;;;5074313;28;20989;-50
2022/03/30 11:16:17;;;;;;;28.20;27.00;;;22.50;46.50;;;;;;5074065;28;20477;-53
2022/03/30 11:19:02;;;;;;;28.97;27.87;;;22.60;46.50;;;;;;5074252;28;20448;-51
2022/03/30 11:21:30;;;;;;;28.57;27.37;;;22.70;46.40;;;;;;5074332;28;20452;-52
2022/03/30 11:24:12;;;;;;;28.73;27.43;;;22.70;46.10;;;;;;5073937;28;20467;-51
2022/03/30 11:27:18;;;;;;;29.40;28.20;;;22.90;46.00;;;;;;5073867;28;21310;-50
2022/03/30 11:29:48;;;;;;;27.97;26.77;;;23.10;45.70;;;;;;5062658;28;20533;-54
2022/03/30 11:32:56;;;;;;;28.13;26.93;;;23.20;45.40;;;;;;5073773;28;20463;-53
2022/03/30 11:35:25;;;;;;;27.43;26.33;;;23.30;45.20;;;;;;4992183;28;20462;-50
2022/03/30 11:38:21;;;;;;;27.77;26.57;;;23.30;45.00;;;;;;5061913;28;20838;-50
2022/03/30 11:40:58;;;;;;;28.83;27.63;;;23.50;44.80;;;;;;5073759;28;20447;-54
2022/03/30 11:43:25;;;;;;;28.60;27.40;;;24.30;44.40;;;;;;5073752;28;21014;-53
2022/03/30 11:45:52;;;;;;;29.57;28.27;;;25.70;42.70;;;;;;5073409;28;20965;-50
2022/03/30 11:48:19;;;;;;;29.20;27.90;;;26.80;40.60;;;;;;5073591;28;20841;-51
2022/03/30 11:50:47;;;;;;;29.00;27.80;;;27.70;38.70;;;;;;5073603;28;20448;-53
2022/03/30 11:53:16;;;;;;;30.80;29.50;;;28.50;37.20;;;;;;5099604;22;20479;-51
2022/03/30 11:55:54;;;;;;;28.70;27.50;;;29.20;36.00;;;;;;5085197;28;20438;-48
2022/03/30 11:58:26;;;;;;;29.30;28.10;;;29.70;34.90;;;;;;5093790;28;20468;-52
2022/03/30 12:00:53;;;;;;;30.50;29.10;;;30.20;34.00;;;;;;5093697;28;20974;-51
2022/03/30 12:03:20;;;;;;;31.00;29.67;;;30.60;33.40;;;;;;5093586;28;20466;-47
2022/03/30 12:05:51;;;;;;;29.00;27.80;;;31.00;32.70;;;;;;5092576;28;20445;-47
2022/03/30 12:08:18;;;;;;;29.03;27.80;;;31.20;32.10;;;;;;5093517;28;20941;-47
2022/03/30 12:10:46;;;;;;;27.87;26.60;;;31.60;31.70;;;;;;5093609;28;20945;-48
2022/03/30 12:13:21;;;;;;;29.03;27.77;;;32.00;31.20;;;;;;5093381;28;20486;-50
2022/03/30 12:15:48;;;;;;;29.03;27.83;;;32.30;30.60;;;;;;5093426;28;20503;-47
2022/03/30 12:18:15;;;;;;;29.37;28.17;;;32.50;30.20;;;;;;5093373;28;20453;-48
2022/03/30 12:20:42;;;;;;;30.27;29.07;;;32.90;29.90;;;;;;5093379;28;20448;-47
2022/03/30 12:23:10;;;;;;;29.20;28.00;;;33.10;29.60;;;;;;5093188;28;20469;-53
2022/03/30 12:25:39;;;;;;;30.77;29.57;;;33.40;29.40;;;;;;5093096;28;20454;-47
2022/03/30 12:28:07;;;;;;;30.93;29.73;;;33.70;29.10;;;;;;5093170;28;20503;-48
2022/03/30 12:30:37;;;;;;;31.63;30.33;;;34.10;28.80;;;;;;5093137;28;20808;-48
2022/03/30 12:33:04;;;;;;;29.07;27.87;;;34.40;28.60;;;;;;5092978;28;20538;-47
2022/03/30 12:35:33;;;;;;;27.50;26.40;;;34.00;28.20;;;;;;5092900;28;20766;-47
2022/03/30 12:38:08;;;;;;;29.80;28.60;;;32.30;28.60;;;;;;5092843;28;20446;-49
2022/03/30 12:40:36;;;;;;;28.40;27.30;;;30.70;30.00;;;;;;5092950;28;20456;-47
2022/03/30 12:43:03;;;;;;;29.57;28.27;;;29.40;31.40;;;;;;5092877;28;20824;-46
2022/03/30 12:45:30;;;;;;;28.30;27.10;;;29.30;33.10;;;;;;5092626;28;20442;-47
2022/03/30 12:48:02;;;;;;;28.60;27.30;;;30.80;32.50;;;;;;5092696;28;20449;-47